Time;durP1;ratioP1;P1;durP2;ratioP2;P2;SDS_P1;SDS_P2;PMS_P1;PMS_P2;Temp;Humidity;BMP_temperature;BMP_pressure;BME280_temperature;BME280_humidity;BME280_pressure;Samples;Min_cycle;Max_cycle;Signal;HPM_P1;HPM_P2
2021/12/04 00:01:16;;;;;;;34.45;18.95;;;4.20;99.90;;;;;;5016363;28;20553;-74
2021/12/04 00:03:42;;;;;;;30.33;17.98;;;4.20;99.90;;;;;;5017780;28;20495;-74
2021/12/04 00:06:25;;;;;;;35.95;20.10;;;4.20;99.90;;;;;;5014657;28;20449;-74
2021/12/04 00:08:50;;;;;;;34.97;20.38;;;4.20;99.90;;;;;;5001671;28;20037;-74
2021/12/04 00:11:17;;;;;;;35.03;18.85;;;4.20;99.90;;;;;;5017359;28;20037;-74
2021/12/04 00:13:43;;;;;;;33.97;19.33;;;4.20;99.90;;;;;;5019437;28;20045;-74
2021/12/04 00:16:09;;;;;;;32.85;18.35;;;4.20;99.90;;;;;;5021914;28;20395;-74
2021/12/04 00:18:34;;;;;;;35.42;19.02;;;4.20;99.90;;;;;;5021584;28;20029;-74
2021/12/04 00:21:00;;;;;;;35.92;19.77;;;4.20;99.90;;;;;;5020019;28;20600;-74
2021/12/04 00:23:26;;;;;;;34.53;19.23;;;4.20;99.90;;;;;;5017979;28;20064;-73
2021/12/04 00:25:51;;;;;;;32.67;19.45;;;4.20;99.90;;;;;;5021034;28;20399;-74
2021/12/04 00:28:17;;;;;;;35.65;19.38;;;4.20;99.90;;;;;;5018430;28;20022;-74
2021/12/04 00:30:44;;;;;;;36.95;20.58;;;4.20;99.90;;;;;;5020066;28;20026;-74
2021/12/04 00:33:16;;;;;;;35.92;19.70;;;4.20;99.90;;;;;;5020498;28;20124;-74
2021/12/04 00:35:48;;;;;;;36.85;20.40;;;4.20;99.90;;;;;;5018149;28;20044;-74
2021/12/04 00:49:09;;;;;;;38.08;20.10;;;4.20;99.90;;;;;;5020011;28;20071;-74
2021/12/04 00:51:36;;;;;;;37.03;19.60;;;4.20;99.90;;;;;;5018979;28;20030;-74
2021/12/04 00:54:02;;;;;;;41.08;22.25;;;4.20;99.90;;;;;;5022470;28;20030;-74
2021/12/04 00:56:27;;;;;;;35.40;19.30;;;4.30;99.90;;;;;;5019721;28;20499;-74
2021/12/04 00:58:53;;;;;;;46.45;22.77;;;4.20;99.90;;;;;;5020799;28;20025;-74
2021/12/04 01:01:19;;;;;;;41.85;21.45;;;4.20;99.90;;;;;;5020168;28;20036;-74
2021/12/04 01:03:45;;;;;;;43.83;22.38;;;4.20;99.90;;;;;;5020577;28;20041;-74
2021/12/04 01:06:12;;;;;;;41.55;21.92;;;4.20;99.90;;;;;;5018511;28;20026;-74
2021/12/04 01:08:38;;;;;;;40.75;21.10;;;4.20;99.90;;;;;;5017731;28;20467;-74
2021/12/04 01:11:04;;;;;;;40.88;21.45;;;4.20;99.90;;;;;;4998677;28;20018;-74
2021/12/04 01:13:31;;;;;;;39.33;21.05;;;4.20;99.90;;;;;;5001595;28;20075;-74
2021/12/04 01:15:57;;;;;;;43.85;22.10;;;4.30;99.90;;;;;;5017530;28;20641;-74
2021/12/04 01:18:24;;;;;;;39.47;20.42;;;4.30;99.90;;;;;;5016408;28;20022;-74
2021/12/04 01:20:49;;;;;;;46.55;22.10;;;4.30;99.90;;;;;;5017212;28;20104;-74
2021/12/04 01:23:18;;;;;;;37.92;20.70;;;4.30;99.90;;;;;;5016235;28;20037;-74
2021/12/04 01:25:44;;;;;;;41.10;21.00;;;4.20;99.90;;;;;;5020044;28;20033;-74
2021/12/04 01:28:10;;;;;;;40.05;21.80;;;4.30;99.90;;;;;;5017278;28;20399;-75
2021/12/04 01:30:37;;;;;;;34.88;19.38;;;4.30;99.90;;;;;;5018876;28;20494;-74
2021/12/04 01:33:03;;;;;;;36.35;20.67;;;4.30;99.90;;;;;;5017095;28;20026;-75
2021/12/04 01:35:29;;;;;;;38.20;20.38;;;4.30;99.90;;;;;;5017380;28;20014;-74
2021/12/04 01:37:55;;;;;;;36.38;20.52;;;4.30;99.90;;;;;;5001680;28;20033;-74
2021/12/04 01:40:21;;;;;;;39.75;20.50;;;4.30;99.90;;;;;;5017352;28;20076;-74
2021/12/04 01:42:47;;;;;;;35.97;18.95;;;4.30;99.90;;;;;;5018053;28;20030;-75
2021/12/04 01:45:14;;;;;;;36.30;19.20;;;4.30;99.90;;;;;;5016837;28;20025;-74
2021/12/04 01:47:39;;;;;;;35.65;19.38;;;4.30;99.90;;;;;;5018509;28;20033;-75
2021/12/04 01:50:07;;;;;;;34.08;19.58;;;4.30;99.90;;;;;;5018049;28;20025;-74
2021/12/04 01:52:33;;;;;;;34.42;19.20;;;4.30;99.90;;;;;;5018105;28;20405;-75
2021/12/04 01:54:59;;;;;;;36.22;19.45;;;4.30;99.90;;;;;;5019014;28;20027;-74
2021/12/04 01:57:25;;;;;;;36.28;18.92;;;4.30;99.90;;;;;;5020309;28;20071;-74
2021/12/04 01:59:51;;;;;;;35.08;19.35;;;4.30;99.90;;;;;;5018542;28;20084;-74
2021/12/04 02:02:18;;;;;;;34.33;19.55;;;4.30;99.90;;;;;;5015678;28;20026;-74
2021/12/04 02:04:44;;;;;;;35.00;19.13;;;4.30;99.90;;;;;;5020122;28;20025;-74
2021/12/04 02:07:11;;;;;;;35.00;18.73;;;4.30;99.90;;;;;;5017087;28;20072;-74
2021/12/04 02:09:37;;;;;;;38.28;19.40;;;4.30;99.90;;;;;;5015064;28;20029;-74
2021/12/04 02:12:06;;;;;;;33.58;19.65;;;4.30;99.90;;;;;;5015463;28;20049;-74
2021/12/04 02:14:33;;;;;;;32.97;18.05;;;4.30;99.90;;;;;;5016640;28;20032;-74
2021/12/04 02:16:59;;;;;;;31.70;18.42;;;4.30;99.90;;;;;;5001431;28;20040;-74
2021/12/04 02:19:25;;;;;;;36.10;20.05;;;4.30;99.90;;;;;;5017177;28;20454;-74
2021/12/04 02:21:51;;;;;;;34.33;19.85;;;4.30;99.90;;;;;;5018560;28;20026;-74
2021/12/04 02:24:16;;;;;;;35.67;19.48;;;4.30;99.90;;;;;;5017481;28;20068;-74
2021/12/04 02:26:43;;;;;;;34.88;19.27;;;4.30;99.90;;;;;;5001423;28;20033;-74
2021/12/04 02:29:09;;;;;;;35.42;18.85;;;4.30;99.90;;;;;;5015078;28;20104;-74
2021/12/04 02:31:35;;;;;;;36.22;19.50;;;4.30;99.90;;;;;;4998132;28;20488;-74
2021/12/04 02:34:00;;;;;;;39.65;21.40;;;4.30;99.90;;;;;;5015356;28;20029;-74
2021/12/04 02:36:27;;;;;;;40.35;20.45;;;4.30;99.90;;;;;;4995851;28;20026;-75
2021/12/04 02:38:52;;;;;;;36.83;19.98;;;4.30;99.90;;;;;;5016822;28;20091;-75
2021/12/04 02:41:20;;;;;;;40.70;20.77;;;4.30;99.90;;;;;;5016803;28;20033;-75
2021/12/04 02:43:46;;;;;;;40.67;21.33;;;4.30;99.90;;;;;;5015350;28;20038;-74
2021/12/04 02:46:14;;;;;;;38.38;20.50;;;4.30;99.90;;;;;;5018152;28;20476;-74
2021/12/04 02:48:42;;;;;;;39.33;21.45;;;4.30;99.90;;;;;;5015261;28;20034;-74
2021/12/04 02:51:08;;;;;;;41.85;22.65;;;4.30;99.90;;;;;;5018201;28;20724;-74
2021/12/04 02:53:34;;;;;;;39.70;21.27;;;4.30;99.90;;;;;;4999426;28;20034;-74
2021/12/04 02:56:00;;;;;;;41.25;21.95;;;4.30;99.90;;;;;;5012556;28;20408;-74
2021/12/04 02:58:26;;;;;;;41.47;22.08;;;4.30;99.90;;;;;;5013807;28;20041;-74
2021/12/04 03:00:51;;;;;;;43.40;22.17;;;4.40;99.90;;;;;;5015845;28;20066;-74
2021/12/04 03:03:19;;;;;;;39.55;21.20;;;4.40;99.90;;;;;;5014932;28;20026;-74
2021/12/04 03:05:49;;;;;;;43.05;22.25;;;4.40;99.90;;;;;;5017736;28;20026;-75
2021/12/04 03:08:17;;;;;;;39.97;21.65;;;4.40;99.90;;;;;;5018775;28;20040;-74
2021/12/04 03:10:42;;;;;;;39.90;22.23;;;4.40;99.90;;;;;;4999083;28;20041;-74
2021/12/04 03:13:10;;;;;;;42.55;21.48;;;4.40;99.90;;;;;;4998665;28;20111;-74
2021/12/04 03:15:43;;;;;;;39.70;22.65;;;4.30;99.90;;;;;;5014223;28;20045;-74
2021/12/04 03:18:09;;;;;;;44.22;23.20;;;4.40;99.90;;;;;;4998642;28;20026;-74
2021/12/04 03:20:42;;;;;;;39.50;21.90;;;4.40;99.90;;;;;;5014542;28;20030;-74
2021/12/04 03:23:16;;;;;;;39.45;20.95;;;4.40;99.90;;;;;;4994416;28;20104;-74
2021/12/04 03:25:44;;;;;;;40.90;22.10;;;4.50;99.90;;;;;;5017164;28;20041;-74
2021/12/04 03:28:12;;;;;;;41.92;22.67;;;4.40;99.90;;;;;;5014010;28;20021;-74
2021/12/04 03:31:07;;;;;;;41.58;22.33;;;4.40;99.90;;;;;;5015465;28;20492;-74
2021/12/04 03:41:20;;;;;;;43.35;23.25;;;4.40;99.90;;;;;;5012689;28;20095;-74
2021/12/04 03:43:46;;;;;;;47.35;24.02;;;4.40;99.90;;;;;;5013510;28;20512;-74
2021/12/04 03:46:15;;;;;;;44.72;22.65;;;4.40;99.90;;;;;;5014527;28;20568;-74
2021/12/04 03:51:10;;;;;;;49.42;24.45;;;4.40;99.90;;;;;;5014095;28;20025;-74
2021/12/04 03:53:36;;;;;;;50.75;24.50;;;4.40;99.90;;;;;;5013195;28;20029;-74
2021/12/04 03:56:04;;;;;;;42.53;22.98;;;4.40;99.90;;;;;;5016825;28;20080;-74
2021/12/04 03:58:29;;;;;;;56.42;27.35;;;4.40;99.90;;;;;;5013287;28;20026;-74
2021/12/04 04:00:55;;;;;;;53.67;27.30;;;4.40;99.90;;;;;;5001708;28;20060;-74
2021/12/04 04:03:21;;;;;;;51.60;25.27;;;4.40;99.90;;;;;;5015484;28;20488;-74
2021/12/04 04:05:47;;;;;;;47.17;24.35;;;4.40;99.90;;;;;;5017508;28;20044;-75
2021/12/04 04:08:14;;;;;;;49.50;23.83;;;4.40;99.90;;;;;;5015050;28;20025;-74
2021/12/04 04:10:41;;;;;;;46.90;23.35;;;4.50;99.90;;;;;;5010779;28;20037;-74
2021/12/04 04:13:11;;;;;;;47.80;25.40;;;4.40;99.90;;;;;;5013519;28;20108;-74
2021/12/04 04:15:37;;;;;;;57.83;26.15;;;4.40;99.90;;;;;;5016342;28;20190;-74
2021/12/04 04:18:04;;;;;;;50.35;25.25;;;4.40;99.90;;;;;;5014000;28;20033;-74
2021/12/04 04:20:31;;;;;;;54.38;26.67;;;4.40;99.90;;;;;;5011454;28;20033;-74
2021/12/04 04:22:56;;;;;;;55.88;24.90;;;4.50;99.90;;;;;;5020528;28;20109;-74
2021/12/04 04:25:23;;;;;;;52.40;26.83;;;4.50;99.90;;;;;;5016631;28;20112;-74
2021/12/04 04:27:49;;;;;;;49.97;25.08;;;4.40;99.90;;;;;;5017992;28;20398;-74
2021/12/04 04:30:19;;;;;;;57.10;27.70;;;4.40;99.90;;;;;;5014542;28;20030;-74
2021/12/04 04:32:47;;;;;;;52.55;25.55;;;4.30;99.90;;;;;;5013816;28;20025;-74
2021/12/04 04:35:15;;;;;;;50.22;25.48;;;4.40;99.90;;;;;;5012705;28;20018;-74
2021/12/04 04:37:54;;;;;;;54.50;25.40;;;4.40;99.90;;;;;;5012464;28;20399;-74
2021/12/04 05:13:05;;;;;;;47.75;22.80;;;4.40;99.90;;;;;;4958212;28;20093;-74
2021/12/04 05:20:48;;;;;;;50.35;24.88;;;4.40;99.90;;;;;;4965255;28;20111;-74
2021/12/04 05:23:14;;;;;;;45.63;22.85;;;4.50;99.90;;;;;;4960129;28;20141;-74
2021/12/04 05:25:39;;;;;;;48.70;22.90;;;4.40;99.90;;;;;;4965142;28;20042;-74
2021/12/04 05:28:06;;;;;;;52.05;24.70;;;4.40;99.90;;;;;;4940173;28;20119;-74
2021/12/04 05:30:33;;;;;;;43.58;21.98;;;4.40;99.90;;;;;;4962500;28;20042;-75
2021/12/04 05:33:00;;;;;;;44.78;22.77;;;4.40;99.90;;;;;;4964345;28;20541;-74
2021/12/04 05:35:26;;;;;;;44.50;21.73;;;4.40;99.90;;;;;;4940262;28;20429;-74
2021/12/04 05:37:52;;;;;;;41.08;22.35;;;4.40;99.90;;;;;;4959585;28;20035;-74
2021/12/04 05:40:18;;;;;;;40.70;21.88;;;4.50;99.90;;;;;;4958540;28;20077;-74
2021/12/04 05:42:45;;;;;;;45.38;23.13;;;4.50;99.90;;;;;;4959140;28;20497;-74
2021/12/04 05:45:23;;;;;;;45.85;23.83;;;4.50;99.90;;;;;;5014731;28;20033;-74
2021/12/04 05:47:58;;;;;;;46.42;22.65;;;4.50;99.90;;;;;;5019666;28;20059;-74
2021/12/04 05:55:28;;;;;;;47.47;23.92;;;4.50;99.90;;;;;;5017287;28;20620;-74
2021/12/04 05:57:54;;;;;;;42.83;23.23;;;4.50;99.90;;;;;;5015445;28;20034;-74
2021/12/04 06:00:23;;;;;;;49.90;24.50;;;4.40;99.90;;;;;;5016570;28;20460;-73
2021/12/04 06:02:49;;;;;;;43.55;22.77;;;4.40;99.90;;;;;;5016920;28;20025;-74
2021/12/04 06:05:17;;;;;;;42.80;22.60;;;4.40;99.90;;;;;;5019433;28;20402;-74
2021/12/04 06:07:42;;;;;;;45.35;23.40;;;4.40;99.90;;;;;;5017419;28;20052;-74
2021/12/04 06:10:09;;;;;;;40.58;21.25;;;4.40;99.90;;;;;;5018282;28;20026;-74
2021/12/04 06:12:34;;;;;;;42.35;21.73;;;4.50;99.90;;;;;;5017573;28;20077;-74
2021/12/04 06:15:00;;;;;;;43.38;23.33;;;4.50;99.90;;;;;;5002485;28;20021;-74
2021/12/04 06:17:28;;;;;;;49.63;23.90;;;4.50;99.90;;;;;;5018724;28;20021;-74
2021/12/04 06:22:43;;;;;;;43.72;22.38;;;4.50;99.90;;;;;;5017443;28;20022;-75
2021/12/04 06:25:19;;;;;;;48.42;23.90;;;4.40;99.90;;;;;;5016463;28;20029;-75
2021/12/04 06:27:45;;;;;;;43.38;21.58;;;4.40;99.90;;;;;;5021092;28;20094;-74
2021/12/04 06:30:14;;;;;;;45.90;22.70;;;4.40;99.90;;;;;;5020358;28;20189;-75
2021/12/04 06:32:41;;;;;;;44.08;22.60;;;4.40;99.90;;;;;;5015699;28;20033;-74
2021/12/04 06:35:10;;;;;;;48.92;22.42;;;4.30;99.90;;;;;;5021130;28;20040;-74
2021/12/04 06:37:37;;;;;;;43.92;20.90;;;4.30;99.90;;;;;;5014785;28;20034;-74
2021/12/04 06:40:05;;;;;;;39.20;20.25;;;4.30;99.90;;;;;;5019152;28;20022;-77
2021/12/04 06:42:31;;;;;;;42.25;20.98;;;4.30;99.90;;;;;;4995582;28;20080;-74
2021/12/04 06:44:57;;;;;;;40.00;20.25;;;4.30;99.90;;;;;;5019752;28;20029;-75
2021/12/04 06:47:24;;;;;;;39.55;21.02;;;4.30;99.90;;;;;;5017253;28;20480;-74
2021/12/04 06:49:52;;;;;;;45.28;21.40;;;4.40;99.90;;;;;;5014366;28;20336;-75
2021/12/04 06:52:22;;;;;;;44.75;21.02;;;4.40;99.90;;;;;;5017903;28;20542;-74
2021/12/04 06:54:54;;;;;;;41.63;20.20;;;4.30;99.90;;;;;;5009661;28;20033;-74
2021/12/04 06:57:21;;;;;;;38.03;19.20;;;4.30;99.90;;;;;;5017742;28;20176;-73
2021/12/04 06:59:48;;;;;;;38.38;19.80;;;4.30;99.90;;;;;;5016117;28;20018;-74
2021/12/04 07:02:14;;;;;;;38.25;18.90;;;4.30;99.90;;;;;;5013614;28;20025;-74
2021/12/04 07:04:40;;;;;;;32.97;17.00;;;4.30;99.90;;;;;;4997329;28;20018;-74
2021/12/04 07:07:08;;;;;;;35.00;18.73;;;4.30;99.90;;;;;;5016160;28;20090;-74
2021/12/04 07:09:35;;;;;;;32.30;16.63;;;4.30;99.90;;;;;;5018022;28;20034;-75
2021/12/04 07:12:01;;;;;;;34.85;18.15;;;4.30;99.90;;;;;;5013385;28;20080;-75
2021/12/04 07:14:28;;;;;;;33.40;17.55;;;4.30;99.90;;;;;;5013778;28;20022;-74
2021/12/04 07:16:54;;;;;;;34.08;16.65;;;4.30;99.90;;;;;;5017223;28;20030;-74
2021/12/04 07:19:20;;;;;;;35.33;16.67;;;4.50;99.90;;;;;;5015332;28;20476;-75
2021/12/04 07:21:46;;;;;;;32.35;16.60;;;4.60;99.90;;;;;;5015639;28;20063;-75
2021/12/04 07:24:13;;;;;;;31.88;16.10;;;4.60;99.90;;;;;;5002052;28;20408;-75
2021/12/04 07:26:39;;;;;;;31.33;16.63;;;4.60;99.90;;;;;;5022387;28;20041;-74
2021/12/04 07:29:05;;;;;;;30.30;16.40;;;4.60;99.90;;;;;;4988959;28;20030;-75
2021/12/04 07:31:32;;;;;;;32.08;17.30;;;4.50;99.90;;;;;;5014958;28;20484;-74
2021/12/04 07:33:57;;;;;;;30.63;16.33;;;4.50;99.90;;;;;;5018265;28;20030;-74
2021/12/04 07:36:23;;;;;;;32.80;17.35;;;4.50;99.90;;;;;;5018421;28;20022;-75
2021/12/04 07:38:50;;;;;;;29.52;16.50;;;4.40;99.90;;;;;;4994025;28;20101;-75
2021/12/04 07:41:16;;;;;;;30.73;16.77;;;4.40;99.90;;;;;;5016469;28;20444;-75
2021/12/04 07:43:43;;;;;;;29.02;15.55;;;4.40;99.90;;;;;;4996774;28;20076;-75
2021/12/04 07:46:08;;;;;;;27.35;15.02;;;4.40;99.90;;;;;;5022314;28;20027;-75
2021/12/04 07:48:34;;;;;;;29.77;16.50;;;4.40;99.90;;;;;;5015836;28;20113;-75
2021/12/04 07:51:01;;;;;;;30.77;16.70;;;4.40;99.90;;;;;;5015160;28;20033;-75
2021/12/04 07:53:29;;;;;;;27.83;15.73;;;4.40;99.90;;;;;;5016549;28;20036;-75
2021/12/04 07:55:54;;;;;;;28.05;15.85;;;4.50;99.90;;;;;;5012483;28;20018;-74
2021/12/04 07:58:20;;;;;;;28.23;15.90;;;4.50;99.90;;;;;;5001781;28;20040;-73
2021/12/04 08:00:46;;;;;;;26.95;16.25;;;4.60;99.90;;;;;;5015375;28;20397;-77
2021/12/04 08:03:12;;;;;;;25.23;14.13;;;4.60;99.90;;;;;;5020699;28;20026;-75
2021/12/04 08:05:38;;;;;;;30.80;17.40;;;4.70;99.90;;;;;;5012911;28;20104;-75
2021/12/04 08:08:04;;;;;;;27.85;16.17;;;4.70;99.90;;;;;;5013962;28;20113;-74
2021/12/04 08:10:30;;;;;;;28.13;15.73;;;4.70;99.90;;;;;;5000686;28;20120;-76
2021/12/04 08:12:57;;;;;;;31.02;17.30;;;4.60;99.90;;;;;;4996529;28;20123;-76
2021/12/04 08:15:23;;;;;;;29.00;16.70;;;4.60;99.90;;;;;;5015003;28;20018;-75
2021/12/04 08:17:48;;;;;;;30.05;16.27;;;4.60;99.90;;;;;;5014647;28;20080;-74
2021/12/04 08:20:20;;;;;;;29.67;16.45;;;4.60;99.90;;;;;;5021065;28;20049;-76
2021/12/04 08:22:46;;;;;;;28.08;15.80;;;4.60;99.90;;;;;;5011857;28;20487;-75
2021/12/04 08:25:15;;;;;;;35.20;16.95;;;4.60;99.90;;;;;;5016612;28;20376;-77
2021/12/04 08:27:42;;;;;;;32.72;17.77;;;4.60;99.90;;;;;;4996215;28;20060;-75
2021/12/04 08:30:11;;;;;;;26.27;14.38;;;4.60;99.90;;;;;;5007807;28;20035;-76
2021/12/04 08:32:38;;;;;;;31.35;15.60;;;4.50;99.90;;;;;;5013215;28;20026;-75
2021/12/04 08:35:06;;;;;;;29.55;16.27;;;4.50;99.90;;;;;;5016199;28;20045;-75
2021/12/04 08:37:32;;;;;;;30.23;16.35;;;4.50;99.90;;;;;;5016247;28;20030;-77
2021/12/04 08:39:58;;;;;;;37.58;18.10;;;4.50;99.90;;;;;;5017870;28;20100;-76
2021/12/04 08:42:24;;;;;;;36.53;17.45;;;4.50;99.90;;;;;;5015228;28;20109;-76
2021/12/04 08:44:51;;;;;;;32.03;16.45;;;4.50;99.90;;;;;;5017417;28;20476;-76
2021/12/04 08:47:17;;;;;;;30.13;15.68;;;4.50;99.90;;;;;;5017824;28;20480;-76
2021/12/04 08:49:44;;;;;;;29.10;15.95;;;4.50;99.90;;;;;;5016909;28;20038;-77
2021/12/04 08:52:10;;;;;;;29.20;16.15;;;4.60;99.90;;;;;;5022450;28;20025;-77
2021/12/04 08:54:37;;;;;;;31.38;16.77;;;4.60;99.90;;;;;;5020536;28;20061;-76
2021/12/04 08:57:04;;;;;;;31.13;15.57;;;4.60;99.90;;;;;;5027751;28;20032;-77
2021/12/04 08:59:32;;;;;;;25.15;14.10;;;4.60;99.90;;;;;;5024011;28;20404;-77
2021/12/04 09:01:58;;;;;;;25.23;14.10;;;4.70;99.90;;;;;;5016108;28;20022;-76
2021/12/04 09:04:27;;;;;;;25.13;13.63;;;4.70;99.90;;;;;;5024175;28;20529;-77
2021/12/04 09:06:54;;;;;;;25.58;13.73;;;4.80;99.90;;;;;;5020352;28;20029;-76
2021/12/04 09:09:21;;;;;;;27.40;15.60;;;4.80;99.90;;;;;;5026978;28;20029;-77
2021/12/04 09:11:56;;;;;;;26.17;13.43;;;4.80;99.90;;;;;;5021106;28;20033;-76
2021/12/04 09:14:25;;;;;;;25.15;14.43;;;4.90;99.90;;;;;;5017882;28;20040;-77
2021/12/04 09:16:53;;;;;;;20.80;12.63;;;4.90;99.90;;;;;;4998516;28;20046;-76
2021/12/04 09:19:21;;;;;;;23.17;14.05;;;5.00;99.90;;;;;;5023177;28;20033;-77
2021/12/04 09:21:47;;;;;;;27.58;15.40;;;5.00;99.90;;;;;;5022069;28;20428;-75
2021/12/04 09:24:15;;;;;;;25.10;14.35;;;5.00;99.90;;;;;;5015895;28;20073;-77
2021/12/04 09:26:55;;;;;;;27.33;14.95;;;5.00;99.90;;;;;;5017135;28;20029;-76
2021/12/04 09:32:37;;;;;;;31.88;15.85;;;5.00;99.90;;;;;;5019370;28;20025;-77
2021/12/04 10:19:26;;;;;;;27.55;14.57;;;4.80;99.90;;;;;;4964957;28;20070;-77
2021/12/04 10:22:40;;;;;;;28.10;15.27;;;4.90;99.90;;;;;;4966721;28;20225;-76
2021/12/04 10:33:36;;;;;;;30.95;16.40;;;4.90;99.90;;;;;;4964186;28;20109;-76
2021/12/04 10:36:03;;;;;;;30.90;15.68;;;4.90;99.90;;;;;;4965977;28;20099;-75
2021/12/04 10:38:38;;;;;;;30.67;16.60;;;4.90;99.90;;;;;;4962490;28;20045;-76
2021/12/04 10:41:04;;;;;;;32.80;16.58;;;4.80;99.90;;;;;;4925394;28;20031;-76
2021/12/04 10:43:30;;;;;;;27.52;15.20;;;4.80;99.90;;;;;;4938827;28;20031;-75
2021/12/04 10:46:09;;;;;;;26.92;14.02;;;4.90;99.90;;;;;;4964471;28;20070;-75
2021/12/04 10:48:37;;;;;;;32.67;16.95;;;4.80;99.90;;;;;;4998424;28;20026;-76
2021/12/04 10:53:50;;;;;;;28.55;14.98;;;4.80;99.90;;;;;;5012369;28;20556;-76
2021/12/04 10:59:19;;;;;;;26.10;14.75;;;4.90;99.90;;;;;;5007001;28;20159;-76
2021/12/04 11:43:17;;;;;;;29.93;14.60;;;5.00;99.90;;;;;;5016728;28;20522;-76
2021/12/04 11:48:38;;;;;;;26.35;14.50;;;5.00;99.90;;;;;;5012287;28;20471;-75
2021/12/04 11:51:17;;;;;;;29.45;15.00;;;5.10;99.90;;;;;;5019181;28;20109;-75
2021/12/04 11:53:43;;;;;;;36.50;16.52;;;5.20;99.90;;;;;;5011188;28;20365;-76
2021/12/04 11:56:22;;;;;;;47.13;20.50;;;5.20;99.90;;;;;;5017794;28;20021;-74
2021/12/04 11:58:49;;;;;;;40.30;19.33;;;5.20;99.90;;;;;;5016890;28;20029;-75
2021/12/04 12:01:27;;;;;;;36.60;17.10;;;5.20;99.90;;;;;;5023915;28;20391;-75
2021/12/04 12:03:56;;;;;;;29.48;15.13;;;5.20;99.90;;;;;;5022356;28;20056;-76
2021/12/04 12:06:40;;;;;;;27.63;14.57;;;5.20;99.90;;;;;;5003486;28;20116;-74
2021/12/04 12:09:15;;;;;;;25.15;14.52;;;5.20;99.90;;;;;;5020790;28;20828;-74
2021/12/04 12:12:04;;;;;;;26.48;15.15;;;5.20;99.90;;;;;;5025355;28;20040;-75
2021/12/04 12:14:40;;;;;;;26.13;14.90;;;5.10;99.90;;;;;;5018559;28;20037;-75
2021/12/04 12:17:07;;;;;;;23.10;13.50;;;5.10;99.90;;;;;;5014168;28;20017;-75
2021/12/04 12:19:43;;;;;;;23.52;13.15;;;5.10;99.90;;;;;;5018001;28;20075;-74
2021/12/04 12:22:36;;;;;;;24.60;14.57;;;5.10;99.90;;;;;;5016332;28;20025;-74
2021/12/04 12:25:17;;;;;;;21.27;12.45;;;5.10;99.90;;;;;;5024164;28;20117;-75
2021/12/04 12:36:03;;;;;;;20.48;12.20;;;5.00;99.90;;;;;;5017410;28;20030;-75
2021/12/04 12:38:32;;;;;;;21.33;11.77;;;5.00;99.90;;;;;;5020832;28;20070;-75
2021/12/04 12:41:09;;;;;;;19.33;11.40;;;5.00;99.90;;;;;;5018584;28;20017;-75
2021/12/04 12:43:40;;;;;;;22.23;11.98;;;5.00;99.90;;;;;;5014970;28;20492;-75
2021/12/04 12:46:07;;;;;;;20.17;12.13;;;5.00;99.90;;;;;;5016246;28;20033;-75
2021/12/04 12:48:55;;;;;;;22.30;14.00;;;5.00;99.90;;;;;;5020736;28;20044;-75
2021/12/04 12:51:30;;;;;;;23.50;13.07;;;5.00;99.90;;;;;;5017864;28;20100;-74
2021/12/04 12:54:00;;;;;;;28.45;15.10;;;5.10;99.90;;;;;;5016801;28;20504;-75
2021/12/04 12:56:29;;;;;;;28.80;14.93;;;5.10;99.90;;;;;;5015036;28;20101;-74
2021/12/04 12:59:20;;;;;;;28.17;14.10;;;5.00;99.90;;;;;;5021565;28;20048;-75
2021/12/04 13:13:27;;;;;;;28.88;15.38;;;5.00;99.90;;;;;;5022767;28;20057;-77
2021/12/04 13:16:00;;;;;;;25.33;13.52;;;5.00;99.90;;;;;;5020590;28;20056;-77
2021/12/04 13:18:26;;;;;;;22.08;12.52;;;5.00;99.90;;;;;;5021445;28;20052;-76
2021/12/04 13:20:58;;;;;;;21.77;12.88;;;5.00;99.90;;;;;;5019812;28;20026;-77
2021/12/04 13:23:24;;;;;;;21.63;13.20;;;5.10;99.90;;;;;;5020183;28;20460;-75
2021/12/04 13:25:57;;;;;;;21.13;12.73;;;5.00;99.90;;;;;;5017694;28;20026;-73
2021/12/04 13:28:25;;;;;;;18.05;11.05;;;5.10;99.90;;;;;;5019620;28;20025;-75
2021/12/04 13:30:51;;;;;;;20.35;12.20;;;5.10;99.90;;;;;;5015024;28;20022;-76
2021/12/04 13:33:17;;;;;;;16.55;11.18;;;5.10;99.90;;;;;;4996806;28;20088;-77
2021/12/04 13:35:46;;;;;;;18.20;11.77;;;5.20;99.90;;;;;;5016515;28;20029;-79
2021/12/04 13:38:14;;;;;;;19.75;11.65;;;5.20;99.90;;;;;;5021722;28;20373;-79
2021/12/04 13:40:42;;;;;;;21.52;12.75;;;5.20;99.90;;;;;;5019163;28;20029;-77
2021/12/04 13:43:12;;;;;;;25.48;13.48;;;5.20;99.90;;;;;;5010367;28;20037;-77
2021/12/04 13:45:39;;;;;;;20.65;12.52;;;5.10;99.90;;;;;;5019985;28;20061;-77
2021/12/04 13:48:05;;;;;;;25.15;14.93;;;5.10;99.90;;;;;;5017506;28;20373;-76
2021/12/04 13:53:05;;;;;;;25.42;15.18;;;5.10;99.90;;;;;;5017964;28;20045;-75
2021/12/04 13:55:34;;;;;;;28.48;16.13;;;5.10;99.90;;;;;;5016836;28;20038;-75
2021/12/04 13:58:02;;;;;;;24.02;14.32;;;5.10;99.90;;;;;;5019946;28;20029;-75
2021/12/04 14:00:28;;;;;;;25.98;14.82;;;5.10;99.90;;;;;;5018711;28;20029;-74
2021/12/04 14:02:54;;;;;;;29.83;15.75;;;5.10;99.90;;;;;;5016001;28;20030;-74
2021/12/04 14:05:22;;;;;;;26.65;16.02;;;5.10;99.90;;;;;;5021980;28;20033;-75
2021/12/04 14:07:57;;;;;;;27.63;15.77;;;5.10;99.90;;;;;;5014855;28;20053;-74
2021/12/04 14:10:37;;;;;;;28.05;16.38;;;5.10;99.90;;;;;;5015420;28;20603;-76
2021/12/04 14:13:04;;;;;;;24.52;15.07;;;5.10;99.90;;;;;;5012977;28;20510;-74
2021/12/04 14:15:31;;;;;;;29.90;17.25;;;5.00;99.90;;;;;;5016272;28;20045;-74
2021/12/04 14:18:04;;;;;;;23.23;13.88;;;5.00;99.90;;;;;;5023995;28;20033;-74
2021/12/04 14:20:31;;;;;;;26.88;15.50;;;5.00;99.90;;;;;;4992682;28;20029;-74
2021/12/04 14:22:58;;;;;;;25.13;14.63;;;5.00;99.90;;;;;;5015283;28;20038;-74
2021/12/04 14:25:26;;;;;;;27.95;14.93;;;5.00;99.90;;;;;;5013229;28;20053;-74
2021/12/04 14:27:53;;;;;;;24.15;13.90;;;5.10;99.90;;;;;;5015836;28;20029;-75
2021/12/04 14:30:21;;;;;;;22.95;13.95;;;5.00;99.90;;;;;;5020888;28;20665;-74
2021/12/04 14:32:55;;;;;;;23.77;13.75;;;5.00;99.90;;;;;;5013276;28;20068;-74
2021/12/04 14:35:25;;;;;;;22.05;12.23;;;5.00;99.90;;;;;;5019190;28;20021;-74
2021/12/04 14:37:55;;;;;;;20.40;12.15;;;5.00;99.90;;;;;;5006284;28;20032;-75
2021/12/04 14:40:31;;;;;;;18.33;12.25;;;5.00;99.90;;;;;;5020179;28;20049;-73
2021/12/04 14:42:57;;;;;;;20.73;13.45;;;5.00;99.90;;;;;;5021017;28;20022;-75
2021/12/04 14:45:27;;;;;;;21.60;14.10;;;5.00;99.90;;;;;;5021582;28;20024;-75
2021/12/04 14:48:10;;;;;;;20.27;11.93;;;5.00;99.90;;;;;;5023306;28;20121;-75
2021/12/04 14:50:42;;;;;;;19.27;12.05;;;5.00;99.90;;;;;;5002630;28;20030;-74
2021/12/04 14:53:11;;;;;;;20.67;12.43;;;5.00;99.90;;;;;;5020490;28;20537;-75
2021/12/04 14:55:40;;;;;;;20.40;12.02;;;4.90;99.90;;;;;;5017976;28;20049;-76
2021/12/04 14:58:11;;;;;;;19.98;10.73;;;4.90;99.90;;;;;;5002874;28;20116;-75
2021/12/04 15:00:47;;;;;;;15.63;10.50;;;4.90;99.90;;;;;;5017079;28;20037;-75
2021/12/04 15:03:30;;;;;;;20.42;11.40;;;4.90;99.90;;;;;;5019760;28;20018;-75
2021/12/04 15:05:59;;;;;;;16.67;10.90;;;4.90;99.90;;;;;;5017698;28;20042;-73
2021/12/04 15:08:28;;;;;;;16.42;9.88;;;4.80;99.90;;;;;;4995865;28;20037;-75
2021/12/04 15:10:58;;;;;;;17.00;10.63;;;4.80;99.90;;;;;;5000024;28;20026;-75
2021/12/04 15:13:30;;;;;;;18.75;11.75;;;4.90;99.90;;;;;;5018310;28;20090;-75
2021/12/04 15:15:59;;;;;;;22.17;12.43;;;4.90;99.90;;;;;;4993813;28;20026;-76
2021/12/04 15:18:34;;;;;;;25.33;13.48;;;4.80;99.90;;;;;;5020636;28;20029;-74
2021/12/04 15:21:05;;;;;;;29.30;14.15;;;4.80;99.90;;;;;;5017317;28;20030;-75
2021/12/04 15:23:34;;;;;;;26.65;14.27;;;4.80;99.90;;;;;;5016436;28;20065;-74
2021/12/04 15:26:11;;;;;;;28.42;15.15;;;4.80;99.90;;;;;;5017467;28;20105;-75
2021/12/04 15:28:43;;;;;;;29.98;14.40;;;4.80;99.90;;;;;;5019844;28;20048;-74
2021/12/04 15:31:09;;;;;;;35.28;14.43;;;4.80;99.90;;;;;;5010151;28;20026;-75
2021/12/04 15:33:39;;;;;;;30.27;15.18;;;4.80;99.90;;;;;;5015784;28;20035;-75
2021/12/04 15:36:10;;;;;;;33.47;15.60;;;4.80;99.90;;;;;;5019513;28;20037;-74
2021/12/04 15:38:47;;;;;;;32.55;14.75;;;4.90;99.90;;;;;;5014544;28;20296;-75
2021/12/04 15:54:37;;;;;;;18.67;11.60;;;5.00;99.90;;;;;;5017538;28;20104;-75
2021/12/04 15:57:10;;;;;;;17.67;11.25;;;5.00;99.90;;;;;;5017914;28;20025;-74
2021/12/04 15:59:42;;;;;;;18.35;10.65;;;4.90;99.90;;;;;;5017658;28;20373;-75
2021/12/04 16:02:12;;;;;;;18.27;10.60;;;4.90;99.90;;;;;;4999653;28;20026;-75
2021/12/04 16:04:39;;;;;;;18.25;10.68;;;4.90;99.90;;;;;;5019089;28;20033;-75
2021/12/04 16:07:09;;;;;;;17.40;10.98;;;4.90;99.90;;;;;;5016617;28;20026;-75
2021/12/04 16:09:38;;;;;;;20.35;11.25;;;4.90;99.90;;;;;;5021568;28;20545;-74
2021/12/04 16:12:05;;;;;;;15.90;10.43;;;4.80;99.90;;;;;;5001850;28;20100;-75